Terminal Aerodrome Forecast
Issued by NWS Sterling, VA

Home | Current Version | Previous Version | Text Only | Print | Product List | Glossary On
Versions: 1 2 3 4 5 6 7 8 9 10 11 12 13 14 15 16 17 18 19 20 21 22 23 24 25 26 27 28 29
000
FTUS41 KLWX 300901 AAA
TAFDCA
TAF AMD
KDCA 300901Z 3009/0106 16005KT P6SM SCT150
     FM301100 16004KT P6SM BKN100
     FM301500 18010G18KT P6SM BKN060
     FM302100 17009KT P6SM VCTS BKN050CB
     FM010000 16006KT P6SM BKN050=

USA.gov is the U.S. government's official web portal to all federal, state and local government web resources and services.